createdAt,value
2022-10-04T00:03:46.176Z,100171.56
2022-10-04T00:09:14.255Z,100170.41
2022-10-04T00:14:38.370Z,100168.44
2022-10-04T00:20:00.323Z,100153.22
2022-10-04T00:25:34.322Z,100150.81
2022-10-04T00:31:14.340Z,100145.53
2022-10-04T00:36:45.508Z,100140.44
2022-10-04T00:42:44.847Z,100134.34
2022-10-04T00:48:24.861Z,100132.19
2022-10-04T00:54:13.023Z,100143.41
2022-10-04T00:59:39.973Z,100129.19
2022-10-04T01:05:05.457Z,100148.09
2022-10-04T01:10:31.837Z,100129.91
2022-10-04T01:16:03.652Z,100129.13
2022-10-04T01:21:31.009Z,100126.59
2022-10-04T01:26:52.789Z,100124.91
2022-10-04T01:32:14.681Z,100128.75
2022-10-04T01:37:37.364Z,100131.25
2022-10-04T01:43:04.763Z,100143.06
2022-10-04T01:48:33.238Z,100139.44
2022-10-04T01:54:08.621Z,100150.81
2022-10-04T01:59:46.719Z,100145.34
2022-10-04T02:05:12.782Z,100139.66
2022-10-04T02:10:41.028Z,100163.78
2022-10-04T02:16:10.480Z,100154.28
2022-10-04T02:21:32.529Z,100160.09
2022-10-04T02:26:54.389Z,100162.66
2022-10-04T02:32:16.409Z,100161.00
2022-10-04T02:37:38.971Z,100143.72
2022-10-04T02:43:09.141Z,100144.31
2022-10-04T02:48:46.814Z,100158.34
2022-10-04T02:55:01.120Z,100161.72
2022-10-04T03:00:26.293Z,100161.88
2022-10-04T03:06:11.771Z,100152.41
2022-10-04T03:11:36.766Z,100160.03
2022-10-04T03:17:01.710Z,100157.41
2022-10-04T03:22:23.943Z,100166.63
2022-10-04T03:27:46.067Z,100156.16
2022-10-04T03:33:08.017Z,100158.69
2022-10-04T03:38:34.563Z,100161.56
2022-10-04T03:43:58.574Z,100161.25
2022-10-04T03:49:32.796Z,100173.06
2022-10-04T03:54:59.341Z,100177.44
2022-10-04T04:00:21.149Z,100184.28
2022-10-04T04:05:57.953Z,100173.53
2022-10-04T04:11:26.172Z,100178.47
2022-10-04T04:16:48.837Z,100176.63
2022-10-04T04:22:18.389Z,100193.88
2022-10-04T04:27:43.690Z,100192.91
2022-10-04T04:33:20.274Z,100197.75
2022-10-04T04:38:43.979Z,100196.06
2022-10-04T04:44:17.978Z,100204.50
2022-10-04T04:49:39.939Z,100198.44
2022-10-04T04:55:02.654Z,100212.00
2022-10-04T05:00:30.928Z,100216.22
2022-10-04T05:05:53.699Z,100219.22
2022-10-04T05:11:16.031Z,100237.63
2022-10-04T05:16:40.832Z,100238.25
2022-10-04T05:22:09.110Z,100241.53
2022-10-04T05:27:37.901Z,100257.59
2022-10-04T05:33:14.668Z,100258.50
2022-10-04T05:38:59.440Z,100264.50
2022-10-04T05:44:31.430Z,100260.09
2022-10-04T05:49:59.258Z,100273.47
2022-10-04T05:55:33.091Z,100288.97
2022-10-04T06:01:16.203Z,100287.03
2022-10-04T06:06:50.444Z,100294.19
2022-10-04T06:12:25.332Z,100313.38
2022-10-04T06:18:17.656Z,100308.28
2022-10-04T06:24:07.229Z,100295.75
2022-10-04T06:29:36.739Z,100311.75
2022-10-04T06:35:25.185Z,100315.53
2022-10-04T06:41:00.494Z,100322.31
2022-10-04T06:46:35.327Z,100328.00
2022-10-04T06:52:16.715Z,100340.94
2022-10-04T06:57:54.010Z,100342.09
2022-10-04T07:03:28.258Z,100343.44
2022-10-04T07:08:52.538Z,100370.91
2022-10-04T07:14:26.889Z,100378.94
2022-10-04T07:19:51.929Z,100381.91
2022-10-04T07:25:56.398Z,100388.06
2022-10-04T07:31:28.426Z,100382.00
2022-10-04T07:36:55.074Z,100386.75
2022-10-04T07:42:32.099Z,100381.44
2022-10-04T07:48:13.740Z,100383.44
2022-10-04T07:53:59.063Z,100390.13
2022-10-04T07:59:32.693Z,100393.19
2022-10-04T08:05:16.081Z,100410.22
2022-10-04T08:10:41.568Z,100412.88
2022-10-04T08:16:13.536Z,100412.44
2022-10-04T08:21:48.778Z,100404.03
2022-10-04T08:27:21.346Z,100414.66
2022-10-04T08:33:13.221Z,100418.47
2022-10-04T08:38:49.977Z,100421.56
2022-10-04T08:44:34.396Z,100419.41
2022-10-04T08:50:01.950Z,100439.59
2022-10-04T08:55:48.226Z,100444.03
2022-10-04T09:01:24.737Z,100455.47
2022-10-04T09:07:04.224Z,100459.50
2022-10-04T09:12:43.471Z,100452.69
2022-10-04T09:18:45.826Z,100471.47
2022-10-04T09:24:38.569Z,100468.94
2022-10-04T09:30:15.436Z,100474.75
2022-10-04T09:36:09.016Z,100481.13
2022-10-04T09:42:01.965Z,100487.59
2022-10-04T09:47:26.793Z,100498.53
2022-10-04T09:53:07.278Z,100497.66
2022-10-04T09:58:38.755Z,100506.66
2022-10-04T10:04:25.664Z,100506.91
2022-10-04T10:10:06.039Z,100509.63
2022-10-04T10:15:41.462Z,100514.44
2022-10-04T10:21:20.094Z,100524.13
2022-10-04T10:27:09.104Z,100533.38
2022-10-04T10:33:11.757Z,100523.72
2022-10-04T10:39:02.835Z,100536.69
2022-10-04T10:44:50.274Z,100533.25
2022-10-04T10:50:33.678Z,100540.31
2022-10-04T10:56:16.710Z,100526.13
2022-10-04T11:02:07.797Z,100529.59
2022-10-04T11:07:42.719Z,100535.75
2022-10-04T11:13:18.245Z,100561.78
2022-10-04T11:19:11.813Z,100562.28
2022-10-04T11:24:46.831Z,100564.81
2022-10-04T11:30:38.743Z,100574.34
2022-10-04T11:36:18.504Z,100588.69
2022-10-04T11:41:51.103Z,100596.91
2022-10-04T11:47:12.870Z,100597.28
2022-10-04T11:52:52.957Z,100598.53
2022-10-04T11:58:30.005Z,100599.16
2022-10-04T12:04:01.006Z,100592.34
2022-10-04T12:10:06.107Z,100598.75
2022-10-04T12:15:39.974Z,100613.00
2022-10-04T12:21:21.881Z,100610.59
2022-10-04T12:27:02.138Z,100613.19
2022-10-04T12:32:52.215Z,100621.28
2022-10-04T12:38:39.057Z,100627.19
2022-10-04T12:44:18.307Z,100629.69
2022-10-04T12:50:16.928Z,100635.22
2022-10-04T12:56:01.718Z,100648.91
2022-10-04T13:01:50.435Z,100649.13
2022-10-04T13:07:24.508Z,100648.34
2022-10-04T13:13:05.614Z,100654.50
2022-10-04T13:18:30.112Z,100655.50
2022-10-04T13:24:07.537Z,100663.69
2022-10-04T13:29:41.095Z,100664.88
2022-10-04T13:35:21.068Z,100663.09
2022-10-04T13:40:49.024Z,100673.72
2022-10-04T13:46:34.678Z,100664.41
2022-10-04T13:52:19.833Z,100675.59
2022-10-04T13:58:06.327Z,100678.59
2022-10-04T14:04:06.774Z,100684.66
2022-10-04T14:09:39.092Z,100681.66
2022-10-04T14:15:24.742Z,100688.16
2022-10-04T14:21:08.439Z,100687.78
2022-10-04T14:26:33.122Z,100705.16
2022-10-04T14:32:33.314Z,100705.41
2022-10-04T14:38:34.145Z,100718.50
2022-10-04T14:44:08.025Z,100723.94
2022-10-04T14:49:29.973Z,100725.00
2022-10-04T14:55:08.080Z,100738.06
2022-10-04T15:01:11.149Z,100741.72
2022-10-04T15:06:41.013Z,100748.19
2022-10-04T15:12:45.874Z,100759.13
2022-10-04T15:18:25.792Z,100760.22
2022-10-04T15:24:17.223Z,100761.66
2022-10-04T15:29:58.031Z,100774.00
2022-10-04T15:35:34.358Z,100775.81
2022-10-04T15:41:06.932Z,100784.06
2022-10-04T15:46:52.368Z,100790.38
2022-10-04T15:53:00.654Z,100801.69
2022-10-04T15:58:31.514Z,100808.31
2022-10-04T16:04:24.231Z,100815.81
2022-10-04T16:10:10.831Z,100820.72
2022-10-04T16:15:36.330Z,100819.09
2022-10-04T16:21:37.719Z,100840.38
2022-10-04T16:27:24.005Z,100841.97
2022-10-04T16:32:59.122Z,100848.38
2022-10-04T16:38:26.769Z,100853.69
2022-10-04T16:43:54.033Z,100861.00
2022-10-04T16:49:28.542Z,100859.66
2022-10-04T16:55:10.037Z,100855.72
2022-10-04T17:00:35.678Z,100857.94
2022-10-04T17:06:14.026Z,100865.19
2022-10-04T17:11:43.734Z,100873.13
2022-10-04T17:17:28.560Z,100881.91
2022-10-04T17:23:22.093Z,100879.72
2022-10-04T17:28:51.798Z,100891.41
2022-10-04T17:34:22.647Z,100897.97
2022-10-04T17:39:57.544Z,100897.31
2022-10-04T17:45:32.492Z,100894.97
2022-10-04T17:51:23.010Z,100886.56
2022-10-04T17:57:04.130Z,100908.97
2022-10-04T18:02:50.446Z,100909.31
2022-10-04T18:08:44.161Z,100914.97
2022-10-04T18:14:20.600Z,100920.16
2022-10-04T18:19:48.436Z,100928.16
2022-10-04T18:25:20.125Z,100936.06
2022-10-04T18:30:59.250Z,100937.75
2022-10-04T18:36:28.519Z,100927.81
2022-10-04T18:42:29.145Z,100949.41
2022-10-04T18:47:54.388Z,100944.47
2022-10-04T18:53:47.741Z,100959.28
2022-10-04T18:59:34.700Z,100962.00
2022-10-04T19:05:41.894Z,100974.16
2022-10-04T19:11:13.850Z,100990.69
2022-10-04T19:16:35.765Z,100990.88
2022-10-04T19:22:08.232Z,100992.53
2022-10-04T19:27:42.864Z,100989.22
2022-10-04T19:33:07.363Z,100990.16
2022-10-04T19:38:51.353Z,100992.00
2022-10-04T19:44:31.732Z,100998.28
2022-10-04T19:49:58.119Z,101000.88
2022-10-04T19:55:29.622Z,100994.25
2022-10-04T20:00:51.511Z,101017.47
2022-10-04T20:06:21.337Z,101017.53
2022-10-04T20:11:51.511Z,101026.19
2022-10-04T20:17:30.498Z,101025.53
2022-10-04T20:22:52.302Z,101040.13
2022-10-04T20:28:26.526Z,101041.84
2022-10-04T20:33:49.831Z,101050.59
2022-10-04T20:39:40.480Z,101056.66
2022-10-04T20:45:11.015Z,101052.53
2022-10-04T20:50:40.389Z,101043.13
2022-10-04T20:56:14.256Z,101048.22
2022-10-04T21:01:36.941Z,101058.56
2022-10-04T21:07:01.286Z,101057.88
2022-10-04T21:12:35.145Z,101057.06
2022-10-04T21:18:02.946Z,101062.13
2022-10-04T21:23:35.447Z,101049.41
2022-10-04T21:28:58.298Z,101063.06
2022-10-04T21:34:41.007Z,101081.28
2022-10-04T21:40:03.572Z,101076.97
2022-10-04T21:45:25.467Z,101054.03
2022-10-04T21:50:48.021Z,101047.88
2022-10-04T21:56:09.870Z,101065.16
2022-10-04T22:01:31.746Z,101060.91
2022-10-04T22:06:53.618Z,101062.63
2022-10-04T22:12:15.472Z,101063.59
2022-10-04T22:17:37.391Z,101070.47
2022-10-04T22:22:59.455Z,101086.84
2022-10-04T22:28:31.038Z,101083.44
2022-10-04T22:33:53.472Z,101081.66
2022-10-04T22:39:17.910Z,101101.31
2022-10-04T22:44:40.000Z,101110.72
2022-10-04T22:50:01.828Z,101115.94
2022-10-04T22:55:23.852Z,101104.84
2022-10-04T23:00:45.771Z,101121.16
2022-10-04T23:06:07.910Z,101128.88
2022-10-04T23:11:32.830Z,101114.94
2022-10-04T23:16:54.699Z,101100.47
2022-10-04T23:22:21.476Z,101110.72
2022-10-04T23:27:43.644Z,101120.56
2022-10-04T23:33:21.091Z,101099.50
2022-10-04T23:38:49.380Z,101122.47
2022-10-04T23:44:15.553Z,101118.22
2022-10-04T23:49:37.367Z,101111.66
2022-10-04T23:54:59.205Z,101101.19
